sensor_id;sensor_type;location;lat;lon;timestamp;temperature;humidity
5041;DHT22;2539;52.568;13.364;2022-10-17T00:01:51;13.60;99.90
5041;DHT22;2539;52.568;13.364;2022-10-17T00:04:17;13.60;99.90
5041;DHT22;2539;52.568;13.364;2022-10-17T00:09:26;13.50;99.90
5041;DHT22;2539;52.568;13.364;2022-10-17T00:11:52;13.50;99.90
5041;DHT22;2539;52.568;13.364;2022-10-17T00:14:18;13.60;99.90
5041;DHT22;2539;52.568;13.364;2022-10-17T00:16:45;13.60;99.90
5041;DHT22;2539;52.568;13.364;2022-10-17T00:19:11;13.60;99.90
5041;DHT22;2539;52.568;13.364;2022-10-17T00:21:37;13.60;99.90
5041;DHT22;2539;52.568;13.364;2022-10-17T00:24:04;13.60;99.90
5041;DHT22;2539;52.568;13.364;2022-10-17T00:26:30;13.60;99.90
5041;DHT22;2539;52.568;13.364;2022-10-17T00:28:57;13.50;99.90
5041;DHT22;2539;52.568;13.364;2022-10-17T00:31:24;13.50;99.90
5041;DHT22;2539;52.568;13.364;2022-10-17T00:33:51;13.50;99.90
5041;DHT22;2539;52.568;13.364;2022-10-17T00:36:23;13.50;99.90
5041;DHT22;2539;52.568;13.364;2022-10-17T00:38:55;13.50;99.90
5041;DHT22;2539;52.568;13.364;2022-10-17T00:41:25;13.50;99.90
5041;DHT22;2539;52.568;13.364;2022-10-17T00:46:37;13.40;99.90
5041;DHT22;2539;52.568;13.364;2022-10-17T00:49:09;13.30;99.90
5041;DHT22;2539;52.568;13.364;2022-10-17T00:51:59;13.40;99.90
5041;DHT22;2539;52.568;13.364;2022-10-17T00:54:27;13.40;99.90
5041;DHT22;2539;52.568;13.364;2022-10-17T00:56:55;13.40;99.90
5041;DHT22;2539;52.568;13.364;2022-10-17T00:59:22;13.50;99.90
5041;DHT22;2539;52.568;13.364;2022-10-17T01:02:01;13.50;99.90
5041;DHT22;2539;52.568;13.364;2022-10-17T01:04:28;13.60;99.90
5041;DHT22;2539;52.568;13.364;2022-10-17T01:06:55;13.60;99.90
5041;DHT22;2539;52.568;13.364;2022-10-17T01:09:22;13.60;99.90
5041;DHT22;2539;52.568;13.364;2022-10-17T01:17:36;13.50;99.90
5041;DHT22;2539;52.568;13.364;2022-10-17T01:20:31;13.40;99.90
5041;DHT22;2539;52.568;13.364;2022-10-17T01:28:46;13.10;99.90
5041;DHT22;2539;52.568;13.364;2022-10-17T01:31:40;13.00;99.90
5041;DHT22;2539;52.568;13.364;2022-10-17T01:36:59;12.80;99.90
5041;DHT22;2539;52.568;13.364;2022-10-17T01:42:23;13.00;99.90
5041;DHT22;2539;52.568;13.364;2022-10-17T01:44:58;13.00;99.90
5041;DHT22;2539;52.568;13.364;2022-10-17T01:47:30;13.10;99.90
5041;DHT22;2539;52.568;13.364;2022-10-17T01:50:04;13.10;99.90
5041;DHT22;2539;52.568;13.364;2022-10-17T01:52:37;13.10;99.90
5041;DHT22;2539;52.568;13.364;2022-10-17T01:55:10;13.00;99.90
5041;DHT22;2539;52.568;13.364;2022-10-17T01:57:47;13.00;99.90
5041;DHT22;2539;52.568;13.364;2022-10-17T02:00:17;12.90;99.90
5041;DHT22;2539;52.568;13.364;2022-10-17T02:02:45;12.90;99.90
5041;DHT22;2539;52.568;13.364;2022-10-17T02:05:16;12.90;99.90
5041;DHT22;2539;52.568;13.364;2022-10-17T02:07:43;12.80;99.90
5041;DHT22;2539;52.568;13.364;2022-10-17T02:10:18;12.80;99.90
5041;DHT22;2539;52.568;13.364;2022-10-17T02:13:04;12.70;99.90
5041;DHT22;2539;52.568;13.364;2022-10-17T02:15:51;12.70;99.90
5041;DHT22;2539;52.568;13.364;2022-10-17T02:21:01;12.60;99.90
5041;DHT22;2539;52.568;13.364;2022-10-17T02:26:47;12.60;99.90
5041;DHT22;2539;52.568;13.364;2022-10-17T02:29:30;12.60;99.90
5041;DHT22;2539;52.568;13.364;2022-10-17T02:32:12;12.60;99.90
5041;DHT22;2539;52.568;13.364;2022-10-17T02:35:02;12.70;99.90
5041;DHT22;2539;52.568;13.364;2022-10-17T02:37:31;12.90;99.90
5041;DHT22;2539;52.568;13.364;2022-10-17T02:39:59;13.00;99.90
5041;DHT22;2539;52.568;13.364;2022-10-17T02:42:26;13.10;99.90
5041;DHT22;2539;52.568;13.364;2022-10-17T02:44:54;13.20;99.90
5041;DHT22;2539;52.568;13.364;2022-10-17T02:47:32;13.20;99.90
5041;DHT22;2539;52.568;13.364;2022-10-17T02:49:59;13.30;99.90
5041;DHT22;2539;52.568;13.364;2022-10-17T02:52:35;13.30;99.90
5041;DHT22;2539;52.568;13.364;2022-10-17T03:00:00;13.30;99.90
5041;DHT22;2539;52.568;13.364;2022-10-17T03:02:27;13.40;99.90
5041;DHT22;2539;52.568;13.364;2022-10-17T03:04:53;13.40;99.90
5041;DHT22;2539;52.568;13.364;2022-10-17T03:07:21;13.40;99.90
5041;DHT22;2539;52.568;13.364;2022-10-17T03:09:47;13.40;99.90
5041;DHT22;2539;52.568;13.364;2022-10-17T03:12:14;13.40;99.90
5041;DHT22;2539;52.568;13.364;2022-10-17T03:14:40;13.40;99.90
5041;DHT22;2539;52.568;13.364;2022-10-17T03:17:06;13.30;99.90
5041;DHT22;2539;52.568;13.364;2022-10-17T03:19:33;13.40;99.90
5041;DHT22;2539;52.568;13.364;2022-10-17T03:21:59;13.40;99.90
5041;DHT22;2539;52.568;13.364;2022-10-17T03:24:25;13.40;99.90
5041;DHT22;2539;52.568;13.364;2022-10-17T03:26:52;13.40;99.90
5041;DHT22;2539;52.568;13.364;2022-10-17T03:29:18;13.50;99.90
5041;DHT22;2539;52.568;13.364;2022-10-17T03:31:44;13.50;99.90
5041;DHT22;2539;52.568;13.364;2022-10-17T03:34:11;13.50;99.90
5041;DHT22;2539;52.568;13.364;2022-10-17T03:36:37;13.50;99.90
5041;DHT22;2539;52.568;13.364;2022-10-17T03:39:03;13.60;99.90
5041;DHT22;2539;52.568;13.364;2022-10-17T03:41:30;13.60;99.90
5041;DHT22;2539;52.568;13.364;2022-10-17T03:43:56;13.70;99.90
5041;DHT22;2539;52.568;13.364;2022-10-17T03:46:22;13.60;99.90
5041;DHT22;2539;52.568;13.364;2022-10-17T03:48:49;13.60;99.90
5041;DHT22;2539;52.568;13.364;2022-10-17T03:51:17;13.60;99.90
5041;DHT22;2539;52.568;13.364;2022-10-17T03:53:43;13.50;99.90
5041;DHT22;2539;52.568;13.364;2022-10-17T03:58:37;13.50;99.90
5041;DHT22;2539;52.568;13.364;2022-10-17T04:01:08;13.50;99.90
5041;DHT22;2539;52.568;13.364;2022-10-17T04:03:34;13.50;99.90
5041;DHT22;2539;52.568;13.364;2022-10-17T04:06:01;13.40;99.90
5041;DHT22;2539;52.568;13.364;2022-10-17T04:08:27;13.40;99.90
5041;DHT22;2539;52.568;13.364;2022-10-17T04:11:00;13.40;99.90
5041;DHT22;2539;52.568;13.364;2022-10-17T04:13:28;13.40;99.90
5041;DHT22;2539;52.568;13.364;2022-10-17T04:15:59;13.30;99.90
5041;DHT22;2539;52.568;13.364;2022-10-17T04:18:26;13.40;99.90
5041;DHT22;2539;52.568;13.364;2022-10-17T04:20:53;13.30;99.90
5041;DHT22;2539;52.568;13.364;2022-10-17T04:23:19;13.30;99.90
5041;DHT22;2539;52.568;13.364;2022-10-17T04:25:46;13.30;99.90
5041;DHT22;2539;52.568;13.364;2022-10-17T04:28:12;13.20;99.90
5041;DHT22;2539;52.568;13.364;2022-10-17T04:30:38;13.30;99.90
5041;DHT22;2539;52.568;13.364;2022-10-17T04:33:05;13.30;99.90
5041;DHT22;2539;52.568;13.364;2022-10-17T04:35:32;13.30;99.90
5041;DHT22;2539;52.568;13.364;2022-10-17T04:37:58;13.30;99.90
5041;DHT22;2539;52.568;13.364;2022-10-17T04:40:24;13.30;99.90
5041;DHT22;2539;52.568;13.364;2022-10-17T04:42:51;13.30;99.90
5041;DHT22;2539;52.568;13.364;2022-10-17T04:45:18;13.40;99.90
5041;DHT22;2539;52.568;13.364;2022-10-17T04:47:44;13.30;99.90
5041;DHT22;2539;52.568;13.364;2022-10-17T04:50:10;13.30;99.90
5041;DHT22;2539;52.568;13.364;2022-10-17T04:52:35;13.30;99.90
5041;DHT22;2539;52.568;13.364;2022-10-17T04:55:05;13.30;99.90
5041;DHT22;2539;52.568;13.364;2022-10-17T04:57:33;13.20;99.90
5041;DHT22;2539;52.568;13.364;2022-10-17T05:00:00;13.30;99.90
5041;DHT22;2539;52.568;13.364;2022-10-17T05:02:25;13.30;99.90
5041;DHT22;2539;52.568;13.364;2022-10-17T05:04:51;13.30;99.90
5041;DHT22;2539;52.568;13.364;2022-10-17T05:07:17;13.30;99.90
5041;DHT22;2539;52.568;13.364;2022-10-17T05:09:42;13.20;99.90
5041;DHT22;2539;52.568;13.364;2022-10-17T05:12:08;13.30;99.90
5041;DHT22;2539;52.568;13.364;2022-10-17T05:14:35;13.30;99.90
5041;DHT22;2539;52.568;13.364;2022-10-17T05:17:01;13.40;99.90
5041;DHT22;2539;52.568;13.364;2022-10-17T05:19:28;13.40;99.90
5041;DHT22;2539;52.568;13.364;2022-10-17T05:21:53;13.40;99.90
5041;DHT22;2539;52.568;13.364;2022-10-17T05:24:19;13.40;99.90
5041;DHT22;2539;52.568;13.364;2022-10-17T05:26:45;13.40;99.90
5041;DHT22;2539;52.568;13.364;2022-10-17T05:29:10;13.50;99.90
5041;DHT22;2539;52.568;13.364;2022-10-17T05:31:37;13.40;99.90
5041;DHT22;2539;52.568;13.364;2022-10-17T05:34:03;13.50;99.90
5041;DHT22;2539;52.568;13.364;2022-10-17T05:36:29;13.50;99.90
5041;DHT22;2539;52.568;13.364;2022-10-17T05:38:55;13.40;99.90
5041;DHT22;2539;52.568;13.364;2022-10-17T05:41:20;13.50;99.90
5041;DHT22;2539;52.568;13.364;2022-10-17T05:43:47;13.50;99.90
5041;DHT22;2539;52.568;13.364;2022-10-17T05:46:14;13.40;99.90
5041;DHT22;2539;52.568;13.364;2022-10-17T05:48:40;13.40;99.90
5041;DHT22;2539;52.568;13.364;2022-10-17T05:51:08;13.50;99.90
5041;DHT22;2539;52.568;13.364;2022-10-17T05:53:39;13.50;99.90
5041;DHT22;2539;52.568;13.364;2022-10-17T05:56:08;13.50;99.90
5041;DHT22;2539;52.568;13.364;2022-10-17T05:58:35;13.50;99.90
5041;DHT22;2539;52.568;13.364;2022-10-17T06:01:05;13.60;99.90
5041;DHT22;2539;52.568;13.364;2022-10-17T06:03:32;13.60;99.90
5041;DHT22;2539;52.568;13.364;2022-10-17T06:06:10;13.70;99.90
5041;DHT22;2539;52.568;13.364;2022-10-17T06:08:36;13.80;99.90
5041;DHT22;2539;52.568;13.364;2022-10-17T06:11:02;13.80;99.90
5041;DHT22;2539;52.568;13.364;2022-10-17T06:13:29;13.90;99.90
5041;DHT22;2539;52.568;13.364;2022-10-17T06:15:55;13.90;99.90
5041;DHT22;2539;52.568;13.364;2022-10-17T06:18:22;14.00;99.90
5041;DHT22;2539;52.568;13.364;2022-10-17T06:20:48;14.00;99.90
5041;DHT22;2539;52.568;13.364;2022-10-17T06:23:15;14.00;99.90
5041;DHT22;2539;52.568;13.364;2022-10-17T06:25:41;14.10;99.90
5041;DHT22;2539;52.568;13.364;2022-10-17T06:28:08;14.10;99.90
5041;DHT22;2539;52.568;13.364;2022-10-17T06:30:40;14.20;99.90
5041;DHT22;2539;52.568;13.364;2022-10-17T06:33:06;14.20;99.90
5041;DHT22;2539;52.568;13.364;2022-10-17T06:35:33;14.30;99.90
5041;DHT22;2539;52.568;13.364;2022-10-17T06:37:59;14.30;99.90
5041;DHT22;2539;52.568;13.364;2022-10-17T06:40:26;14.40;99.90
5041;DHT22;2539;52.568;13.364;2022-10-17T06:42:53;14.40;99.90
5041;DHT22;2539;52.568;13.364;2022-10-17T06:45:19;14.40;99.90
5041;DHT22;2539;52.568;13.364;2022-10-17T06:47:46;14.40;99.90
5041;DHT22;2539;52.568;13.364;2022-10-17T06:50:12;14.40;99.90
5041;DHT22;2539;52.568;13.364;2022-10-17T06:52:39;14.50;99.90
5041;DHT22;2539;52.568;13.364;2022-10-17T06:55:06;14.50;99.90
5041;DHT22;2539;52.568;13.364;2022-10-17T06:57:32;14.60;99.90
5041;DHT22;2539;52.568;13.364;2022-10-17T06:59:58;14.70;99.90
5041;DHT22;2539;52.568;13.364;2022-10-17T07:02:25;14.70;99.90
5041;DHT22;2539;52.568;13.364;2022-10-17T07:04:51;14.80;99.90
5041;DHT22;2539;52.568;13.364;2022-10-17T07:07:17;14.80;99.90
5041;DHT22;2539;52.568;13.364;2022-10-17T07:09:43;14.80;99.90
5041;DHT22;2539;52.568;13.364;2022-10-17T07:12:10;15.00;99.90
5041;DHT22;2539;52.568;13.364;2022-10-17T07:14:38;15.00;99.90
5041;DHT22;2539;52.568;13.364;2022-10-17T07:17:03;15.20;99.90
5041;DHT22;2539;52.568;13.364;2022-10-17T07:19:29;15.30;99.90
5041;DHT22;2539;52.568;13.364;2022-10-17T07:21:55;15.40;99.90
5041;DHT22;2539;52.568;13.364;2022-10-17T07:24:21;15.40;99.90
5041;DHT22;2539;52.568;13.364;2022-10-17T07:26:47;15.50;99.90
5041;DHT22;2539;52.568;13.364;2022-10-17T07:29:13;15.50;99.90
5041;DHT22;2539;52.568;13.364;2022-10-17T07:31:40;15.50;99.90
5041;DHT22;2539;52.568;13.364;2022-10-17T07:34:06;15.50;99.90
5041;DHT22;2539;52.568;13.364;2022-10-17T07:36:32;15.60;99.90
5041;DHT22;2539;52.568;13.364;2022-10-17T07:38:59;15.70;99.90
5041;DHT22;2539;52.568;13.364;2022-10-17T07:41:25;15.80;99.90
5041;DHT22;2539;52.568;13.364;2022-10-17T07:43:51;15.90;99.90
5041;DHT22;2539;52.568;13.364;2022-10-17T07:46:17;15.90;99.90
5041;DHT22;2539;52.568;13.364;2022-10-17T07:48:44;16.00;99.90
5041;DHT22;2539;52.568;13.364;2022-10-17T07:51:11;16.10;99.90
5041;DHT22;2539;52.568;13.364;2022-10-17T07:53:38;16.10;99.90
5041;DHT22;2539;52.568;13.364;2022-10-17T07:56:07;16.20;99.90
5041;DHT22;2539;52.568;13.364;2022-10-17T07:58:34;16.20;99.90
5041;DHT22;2539;52.568;13.364;2022-10-17T08:01:06;16.30;99.90
5041;DHT22;2539;52.568;13.364;2022-10-17T08:03:33;16.40;99.90
5041;DHT22;2539;52.568;13.364;2022-10-17T08:06:00;16.50;99.90
5041;DHT22;2539;52.568;13.364;2022-10-17T08:08:27;16.50;99.90
5041;DHT22;2539;52.568;13.364;2022-10-17T08:10:55;16.50;99.90
5041;DHT22;2539;52.568;13.364;2022-10-17T08:13:26;16.50;99.90
5041;DHT22;2539;52.568;13.364;2022-10-17T08:15:52;16.60;99.90
5041;DHT22;2539;52.568;13.364;2022-10-17T08:18:18;16.70;99.90
5041;DHT22;2539;52.568;13.364;2022-10-17T08:20:44;16.80;99.90
5041;DHT22;2539;52.568;13.364;2022-10-17T08:23:10;16.90;99.90
5041;DHT22;2539;52.568;13.364;2022-10-17T08:25:37;16.90;99.90
5041;DHT22;2539;52.568;13.364;2022-10-17T08:28:04;17.00;99.90
5041;DHT22;2539;52.568;13.364;2022-10-17T08:30:31;17.10;99.90
5041;DHT22;2539;52.568;13.364;2022-10-17T08:32:57;17.10;99.90
5041;DHT22;2539;52.568;13.364;2022-10-17T08:35:23;17.20;99.90
5041;DHT22;2539;52.568;13.364;2022-10-17T08:37:50;17.20;99.90
5041;DHT22;2539;52.568;13.364;2022-10-17T08:40:23;17.10;99.90
5041;DHT22;2539;52.568;13.364;2022-10-17T08:43:18;17.20;99.90
5041;DHT22;2539;52.568;13.364;2022-10-17T08:45:59;17.20;99.90
5041;DHT22;2539;52.568;13.364;2022-10-17T08:48:32;17.40;99.90
5041;DHT22;2539;52.568;13.364;2022-10-17T08:56:20;17.50;99.90
5041;DHT22;2539;52.568;13.364;2022-10-17T08:58:47;17.60;99.90
5041;DHT22;2539;52.568;13.364;2022-10-17T09:01:24;17.60;99.90
5041;DHT22;2539;52.568;13.364;2022-10-17T09:06:33;17.80;99.90
5041;DHT22;2539;52.568;13.364;2022-10-17T09:14:59;18.00;99.90
5041;DHT22;2539;52.568;13.364;2022-10-17T09:17:50;18.10;99.90
5041;DHT22;2539;52.568;13.364;2022-10-17T09:20:53;18.20;99.90
5041;DHT22;2539;52.568;13.364;2022-10-17T09:23:35;18.30;99.90
5041;DHT22;2539;52.568;13.364;2022-10-17T09:26:04;18.40;99.90
5041;DHT22;2539;52.568;13.364;2022-10-17T09:28:33;18.40;99.90
5041;DHT22;2539;52.568;13.364;2022-10-17T09:31:04;18.40;99.90
5041;DHT22;2539;52.568;13.364;2022-10-17T09:33:38;18.50;99.90
5041;DHT22;2539;52.568;13.364;2022-10-17T09:36:27;18.60;99.90
5041;DHT22;2539;52.568;13.364;2022-10-17T09:38:56;18.70;99.90
5041;DHT22;2539;52.568;13.364;2022-10-17T09:41:49;18.70;99.90
5041;DHT22;2539;52.568;13.364;2022-10-17T09:44:27;18.80;99.90
5041;DHT22;2539;52.568;13.364;2022-10-17T09:47:40;18.90;99.90
5041;DHT22;2539;52.568;13.364;2022-10-17T09:49:43;19.00;99.90
5041;DHT22;2539;52.568;13.364;2022-10-17T09:52:28;19.10;99.90
5041;DHT22;2539;52.568;13.364;2022-10-17T09:55:06;19.10;99.90
5041;DHT22;2539;52.568;13.364;2022-10-17T09:57:59;19.30;99.90
5041;DHT22;2539;52.568;13.364;2022-10-17T10:00:37;19.40;99.90
5041;DHT22;2539;52.568;13.364;2022-10-17T10:03:18;19.50;99.90
5041;DHT22;2539;52.568;13.364;2022-10-17T10:06:17;19.60;99.90
5041;DHT22;2539;52.568;13.364;2022-10-17T10:08:51;19.70;99.90
5041;DHT22;2539;52.568;13.364;2022-10-17T10:11:22;19.80;99.90
5041;DHT22;2539;52.568;13.364;2022-10-17T10:13:49;19.90;99.90
5041;DHT22;2539;52.568;13.364;2022-10-17T10:16:30;20.10;99.90
5041;DHT22;2539;52.568;13.364;2022-10-17T10:18:56;20.20;99.90
5041;DHT22;2539;52.568;13.364;2022-10-17T10:21:24;20.30;99.90
5041;DHT22;2539;52.568;13.364;2022-10-17T10:24:09;20.40;99.90
5041;DHT22;2539;52.568;13.364;2022-10-17T10:29:37;20.60;99.90
5041;DHT22;2539;52.568;13.364;2022-10-17T10:32:18;20.70;99.90
5041;DHT22;2539;52.568;13.364;2022-10-17T10:37:37;20.70;99.90
5041;DHT22;2539;52.568;13.364;2022-10-17T10:40:35;20.70;99.90
5041;DHT22;2539;52.568;13.364;2022-10-17T10:43:04;20.80;99.90
5041;DHT22;2539;52.568;13.364;2022-10-17T10:56:25;20.80;99.90
5041;DHT22;2539;52.568;13.364;2022-10-17T10:59:01;20.80;99.90
5041;DHT22;2539;52.568;13.364;2022-10-17T11:01:45;20.70;99.90
5041;DHT22;2539;52.568;13.364;2022-10-17T11:04:45;20.80;99.90
5041;DHT22;2539;52.568;13.364;2022-10-17T11:07:22;20.90;99.90
5041;DHT22;2539;52.568;13.364;2022-10-17T11:10:02;21.00;99.90
5041;DHT22;2539;52.568;13.364;2022-10-17T11:18:29;21.10;99.90
5041;DHT22;2539;52.568;13.364;2022-10-17T11:21:22;21.20;99.90
5041;DHT22;2539;52.568;13.364;2022-10-17T11:24:07;21.20;99.90
5041;DHT22;2539;52.568;13.364;2022-10-17T11:26:42;21.30;99.90
5041;DHT22;2539;52.568;13.364;2022-10-17T11:29:10;21.30;99.90
5041;DHT22;2539;52.568;13.364;2022-10-17T11:31:42;21.40;99.90
5041;DHT22;2539;52.568;13.364;2022-10-17T11:34:14;21.50;99.90
5041;DHT22;2539;52.568;13.364;2022-10-17T11:36:46;21.50;99.90
5041;DHT22;2539;52.568;13.364;2022-10-17T11:41:58;21.70;99.90
5041;DHT22;2539;52.568;13.364;2022-10-17T11:44:35;21.80;99.90
5041;DHT22;2539;52.568;13.364;2022-10-17T11:50:02;21.90;99.90
5041;DHT22;2539;52.568;13.364;2022-10-17T11:55:45;22.10;99.90
5041;DHT22;2539;52.568;13.364;2022-10-17T11:58:29;22.10;99.90
5041;DHT22;2539;52.568;13.364;2022-10-17T12:04:01;22.20;99.90
5041;DHT22;2539;52.568;13.364;2022-10-17T12:09:46;22.30;99.90
5041;DHT22;2539;52.568;13.364;2022-10-17T12:12:25;22.40;99.90
5041;DHT22;2539;52.568;13.364;2022-10-17T12:14:52;22.50;99.90
5041;DHT22;2539;52.568;13.364;2022-10-17T12:17:31;22.50;99.90
5041;DHT22;2539;52.568;13.364;2022-10-17T12:22:49;22.50;99.90
5041;DHT22;2539;52.568;13.364;2022-10-17T12:25:21;22.50;99.90
5041;DHT22;2539;52.568;13.364;2022-10-17T12:27:49;22.50;99.90
5041;DHT22;2539;52.568;13.364;2022-10-17T12:30:24;22.40;99.90
5041;DHT22;2539;52.568;13.364;2022-10-17T12:33:01;22.40;99.90
5041;DHT22;2539;52.568;13.364;2022-10-17T12:35:30;22.40;99.90
5041;DHT22;2539;52.568;13.364;2022-10-17T12:38:02;22.40;99.90
5041;DHT22;2539;52.568;13.364;2022-10-17T12:45:55;22.50;99.90
5041;DHT22;2539;52.568;13.364;2022-10-17T12:51:13;22.50;99.90
5041;DHT22;2539;52.568;13.364;2022-10-17T12:56:20;22.50;99.90
5041;DHT22;2539;52.568;13.364;2022-10-17T12:58:50;22.60;99.90
5041;DHT22;2539;52.568;13.364;2022-10-17T13:01:36;22.70;99.90
5041;DHT22;2539;52.568;13.364;2022-10-17T13:04:04;22.70;99.90
5041;DHT22;2539;52.568;13.364;2022-10-17T13:06:37;22.80;99.90
5041;DHT22;2539;52.568;13.364;2022-10-17T13:09:29;22.70;99.90
5041;DHT22;2539;52.568;13.364;2022-10-17T13:11:59;22.70;99.90
5041;DHT22;2539;52.568;13.364;2022-10-17T13:14:26;22.80;99.90
5041;DHT22;2539;52.568;13.364;2022-10-17T13:16:58;22.70;99.90
5041;DHT22;2539;52.568;13.364;2022-10-17T13:19:29;22.80;99.90
5041;DHT22;2539;52.568;13.364;2022-10-17T13:21:58;22.80;99.90
5041;DHT22;2539;52.568;13.364;2022-10-17T13:24:34;22.80;99.90
5041;DHT22;2539;52.568;13.364;2022-10-17T13:27:03;22.80;99.90
5041;DHT22;2539;52.568;13.364;2022-10-17T13:29:30;22.90;99.90
5041;DHT22;2539;52.568;13.364;2022-10-17T13:31:59;22.90;99.90
5041;DHT22;2539;52.568;13.364;2022-10-17T13:34:27;23.00;99.90
5041;DHT22;2539;52.568;13.364;2022-10-17T13:37:02;23.00;99.90
5041;DHT22;2539;52.568;13.364;2022-10-17T13:39:33;23.00;99.90
5041;DHT22;2539;52.568;13.364;2022-10-17T13:42:01;23.10;99.90
5041;DHT22;2539;52.568;13.364;2022-10-17T13:44:32;23.10;99.90
5041;DHT22;2539;52.568;13.364;2022-10-17T13:46:59;23.10;99.90
5041;DHT22;2539;52.568;13.364;2022-10-17T13:49:40;23.10;99.90
5041;DHT22;2539;52.568;13.364;2022-10-17T13:52:17;23.10;99.90
5041;DHT22;2539;52.568;13.364;2022-10-17T13:54:46;23.10;99.90
5041;DHT22;2539;52.568;13.364;2022-10-17T13:57:23;22.90;99.90
5041;DHT22;2539;52.568;13.364;2022-10-17T13:59:54;22.90;99.90
5041;DHT22;2539;52.568;13.364;2022-10-17T14:02:24;22.90;99.90
5041;DHT22;2539;52.568;13.364;2022-10-17T14:05:11;22.90;99.90
5041;DHT22;2539;52.568;13.364;2022-10-17T14:07:45;22.90;99.90
5041;DHT22;2539;52.568;13.364;2022-10-17T14:10:35;22.90;99.90
5041;DHT22;2539;52.568;13.364;2022-10-17T14:13:04;22.80;99.90
5041;DHT22;2539;52.568;13.364;2022-10-17T14:15:33;22.80;99.90
5041;DHT22;2539;52.568;13.364;2022-10-17T14:18:05;22.80;99.90
5041;DHT22;2539;52.568;13.364;2022-10-17T14:20:33;22.80;99.90
5041;DHT22;2539;52.568;13.364;2022-10-17T14:23:00;22.70;99.90
5041;DHT22;2539;52.568;13.364;2022-10-17T14:25:35;22.70;99.90
5041;DHT22;2539;52.568;13.364;2022-10-17T14:30:39;22.60;99.90
5041;DHT22;2539;52.568;13.364;2022-10-17T14:33:12;22.70;99.90
5041;DHT22;2539;52.568;13.364;2022-10-17T14:35:49;22.60;99.90
5041;DHT22;2539;52.568;13.364;2022-10-17T14:38:17;22.50;99.90
5041;DHT22;2539;52.568;13.364;2022-10-17T14:41:07;22.50;99.90
5041;DHT22;2539;52.568;13.364;2022-10-17T14:43:34;22.50;99.90
5041;DHT22;2539;52.568;13.364;2022-10-17T14:46:01;22.50;99.90
5041;DHT22;2539;52.568;13.364;2022-10-17T14:48:28;22.40;99.90
5041;DHT22;2539;52.568;13.364;2022-10-17T14:53:30;22.20;99.90
5041;DHT22;2539;52.568;13.364;2022-10-17T14:56:00;22.10;99.90
5041;DHT22;2539;52.568;13.364;2022-10-17T14:58:31;22.10;99.90
5041;DHT22;2539;52.568;13.364;2022-10-17T15:00:59;22.00;99.90
5041;DHT22;2539;52.568;13.364;2022-10-17T15:03:26;21.90;99.90
5041;DHT22;2539;52.568;13.364;2022-10-17T15:05:53;21.90;99.90
5041;DHT22;2539;52.568;13.364;2022-10-17T15:08:22;21.80;99.90
5041;DHT22;2539;52.568;13.364;2022-10-17T15:10:49;21.80;99.90
5041;DHT22;2539;52.568;13.364;2022-10-17T15:13:16;21.80;99.90
5041;DHT22;2539;52.568;13.364;2022-10-17T15:15:42;21.80;99.90
5041;DHT22;2539;52.568;13.364;2022-10-17T15:18:10;21.70;99.90
5041;DHT22;2539;52.568;13.364;2022-10-17T15:20:38;21.70;99.90
5041;DHT22;2539;52.568;13.364;2022-10-17T15:23:04;21.60;99.90
5041;DHT22;2539;52.568;13.364;2022-10-17T15:25:31;21.60;99.90
5041;DHT22;2539;52.568;13.364;2022-10-17T15:27:57;21.50;99.90
5041;DHT22;2539;52.568;13.364;2022-10-17T15:30:34;21.50;99.90
5041;DHT22;2539;52.568;13.364;2022-10-17T15:33:01;21.40;99.90
5041;DHT22;2539;52.568;13.364;2022-10-17T15:35:27;21.40;99.90
5041;DHT22;2539;52.568;13.364;2022-10-17T15:37:53;21.30;99.90
5041;DHT22;2539;52.568;13.364;2022-10-17T15:40:25;21.20;99.90
5041;DHT22;2539;52.568;13.364;2022-10-17T15:42:56;21.10;99.90
5041;DHT22;2539;52.568;13.364;2022-10-17T15:45:22;21.10;99.90
5041;DHT22;2539;52.568;13.364;2022-10-17T15:47:55;20.90;99.90
5041;DHT22;2539;52.568;13.364;2022-10-17T15:50:23;21.00;99.90
5041;DHT22;2539;52.568;13.364;2022-10-17T15:52:50;20.90;99.90
5041;DHT22;2539;52.568;13.364;2022-10-17T15:55:17;20.80;99.90
5041;DHT22;2539;52.568;13.364;2022-10-17T15:57:45;20.80;99.90
5041;DHT22;2539;52.568;13.364;2022-10-17T16:00:21;20.80;99.90
5041;DHT22;2539;52.568;13.364;2022-10-17T16:02:48;20.70;99.90
5041;DHT22;2539;52.568;13.364;2022-10-17T16:05:18;20.60;99.90
5041;DHT22;2539;52.568;13.364;2022-10-17T16:07:48;20.60;99.90
5041;DHT22;2539;52.568;13.364;2022-10-17T16:10:15;20.50;99.90
5041;DHT22;2539;52.568;13.364;2022-10-17T16:12:42;20.50;99.90
5041;DHT22;2539;52.568;13.364;2022-10-17T16:17:40;20.40;99.90
5041;DHT22;2539;52.568;13.364;2022-10-17T16:20:07;20.30;99.90
5041;DHT22;2539;52.568;13.364;2022-10-17T16:22:34;20.20;99.90
5041;DHT22;2539;52.568;13.364;2022-10-17T16:25:04;20.20;99.90
5041;DHT22;2539;52.568;13.364;2022-10-17T16:27:37;20.20;99.90
5041;DHT22;2539;52.568;13.364;2022-10-17T16:30:05;20.20;99.90
5041;DHT22;2539;52.568;13.364;2022-10-17T16:32:32;20.10;99.90
5041;DHT22;2539;52.568;13.364;2022-10-17T16:34:59;20.10;99.90
5041;DHT22;2539;52.568;13.364;2022-10-17T16:37:25;20.10;99.90
5041;DHT22;2539;52.568;13.364;2022-10-17T16:39:52;20.00;99.90
5041;DHT22;2539;52.568;13.364;2022-10-17T16:42:19;19.90;99.90
5041;DHT22;2539;52.568;13.364;2022-10-17T16:44:47;19.90;99.90
5041;DHT22;2539;52.568;13.364;2022-10-17T16:47:24;19.90;99.90
5041;DHT22;2539;52.568;13.364;2022-10-17T16:50:12;19.90;99.90
5041;DHT22;2539;52.568;13.364;2022-10-17T16:53:09;19.90;99.90
5041;DHT22;2539;52.568;13.364;2022-10-17T16:55:37;19.90;99.90
5041;DHT22;2539;52.568;13.364;2022-10-17T16:58:05;19.80;99.90
5041;DHT22;2539;52.568;13.364;2022-10-17T17:00:38;19.80;99.90
5041;DHT22;2539;52.568;13.364;2022-10-17T17:03:11;19.80;99.90
5041;DHT22;2539;52.568;13.364;2022-10-17T17:05:40;19.80;99.90
5041;DHT22;2539;52.568;13.364;2022-10-17T17:08:15;19.80;99.90
5041;DHT22;2539;52.568;13.364;2022-10-17T17:10:48;19.70;99.90
5041;DHT22;2539;52.568;13.364;2022-10-17T17:16:31;19.60;99.90
5041;DHT22;2539;52.568;13.364;2022-10-17T17:19:00;19.60;99.90
5041;DHT22;2539;52.568;13.364;2022-10-17T17:21:46;19.60;99.90
5041;DHT22;2539;52.568;13.364;2022-10-17T17:27:52;19.50;99.90
5041;DHT22;2539;52.568;13.364;2022-10-17T17:33:29;19.50;99.90
5041;DHT22;2539;52.568;13.364;2022-10-17T17:36:19;19.50;99.90
5041;DHT22;2539;52.568;13.364;2022-10-17T17:39:54;19.40;99.90
5041;DHT22;2539;52.568;13.364;2022-10-17T17:42:33;19.50;99.90
5041;DHT22;2539;52.568;13.364;2022-10-17T17:45:07;19.30;99.90
5041;DHT22;2539;52.568;13.364;2022-10-17T17:47:50;19.40;99.90
5041;DHT22;2539;52.568;13.364;2022-10-17T17:50:20;19.30;99.90
5041;DHT22;2539;52.568;13.364;2022-10-17T17:52:55;19.30;99.90
5041;DHT22;2539;52.568;13.364;2022-10-17T17:55:21;19.30;99.90
5041;DHT22;2539;52.568;13.364;2022-10-17T17:57:51;19.20;99.90
5041;DHT22;2539;52.568;13.364;2022-10-17T18:00:18;19.30;99.90
5041;DHT22;2539;52.568;13.364;2022-10-17T18:02:44;19.30;99.90
5041;DHT22;2539;52.568;13.364;2022-10-17T18:05:10;19.40;99.90
5041;DHT22;2539;52.568;13.364;2022-10-17T18:07:37;19.40;99.90